Time;durP1;ratioP1;P1;durP2;ratioP2;P2;SDS_P1;SDS_P2;PMS_P1;PMS_P2;Temp;Humidity;BMP_temperature;BMP_pressure;BME280_temperature;BME280_humidity;BME280_pressure;Samples;Min_cycle;Max_cycle;Signal;HPM_P1;HPM_P2
2023/10/07 00:05:25;;;;;;;;;;;;;;;;;;;;;
2023/10/07 00:11:27;;;;;;;10.10;5.50;;;;;;;15.59;95.74;100262.39;223648;1268;140498;-85
2023/10/07 00:17:29;;;;;;;12.70;5.80;;;;;;;15.59;95.66;100263.52;224114;1267;139128;-83
2023/10/07 00:23:52;;;;;;;11.40;4.90;;;;;;;15.56;95.49;100254.59;223578;1268;140305;-84
2023/10/07 00:29:54;;;;;;;11.70;5.20;;;;;;;15.55;95.53;100254.05;223996;1268;141104;-84
2023/10/07 00:35:36;;;;;;;13.10;5.20;;;;;;;15.54;95.80;100248.35;224038;1266;138962;-85
2023/10/07 00:41:39;;;;;;;10.80;4.50;;;;;;;15.51;95.88;100231.66;223537;1267;139843;-85
2023/10/07 00:47:40;;;;;;;9.10;5.00;;;;;;;15.49;96.18;100222.65;224220;1267;138735;-86
2023/10/07 00:53:45;;;;;;;9.30;4.90;;;;;;;15.46;96.44;100221.19;223564;1267;139678;-84
2023/10/07 00:59:40;;;;;;;9.00;4.60;;;;;;;15.45;96.56;100210.67;224235;1267;138698;-85
2023/10/07 01:05:55;;;;;;;11.40;7.00;;;;;;;15.45;96.75;100212.25;224158;1263;138918;-84
2023/10/07 01:11:34;;;;;;;;;;;;;;;;;;;;;
2023/10/07 01:17:40;;;;;;;11.20;6.90;;;;;;;15.46;97.12;100186.48;224236;1264;139137;-84
2023/10/07 01:29:42;;;;;;;10.70;6.30;;;;;;;15.50;97.26;100167.09;224183;1266;138844;-83
2023/10/07 01:35:39;;;;;;;12.80;9.10;;;;;;;15.54;97.19;100164.66;224236;1264;138873;-85
2023/10/07 01:41:40;;;;;;;11.20;5.80;;;;;;;15.57;97.14;100162.89;223751;1264;139912;-86
2023/10/07 01:47:55;;;;;;;11.10;7.90;;;;;;;15.59;97.27;100164.90;224230;1264;138943;-85
2023/10/07 01:53:48;;;;;;;21.40;15.30;;;;;;;15.63;97.02;100157.08;223659;1264;140024;-85
2023/10/07 01:59:52;;;;;;;13.80;7.60;;;;;;;15.66;96.89;100153.96;224210;1263;139682;-85
2023/10/07 02:05:51;;;;;;;9.80;6.50;;;;;;;15.66;96.95;100159.02;224166;1264;246067;-86
2023/10/07 02:23:56;;;;;;;13.60;8.60;;;;;;;15.69;97.35;100141.00;223699;1264;139810;-85
2023/10/07 02:35:58;;;;;;;16.80;12.90;;;;;;;15.72;97.83;100142.77;224153;1264;139633;-88
2023/10/07 02:41:59;;;;;;;42.40;38.70;;;;;;;15.75;97.99;100138.84;223623;1263;140374;-84
2023/10/07 02:48:26;;;;;;;53.80;49.20;;;;;;;15.76;98.40;100137.95;224283;1263;139241;-88
2023/10/07 03:00:13;;;;;;;52.40;47.90;;;;;;;15.80;99.10;100141.54;224198;1263;139056;-88
2023/10/07 03:18:38;;;;;;;325.20;298.50;;;;;;;15.62;100.00;100129.27;224138;1263;139429;-85
2023/10/07 03:24:14;;;;;;;316.50;290.30;;;;;;;15.48;100.00;100126.31;223579;1263;140396;-86
2023/10/07 03:42:25;;;;;;;410.00;367.60;;;;;;;15.28;100.00;100115.14;223552;1263;141092;-87
2023/10/07 03:48:26;;;;;;;350.90;319.20;;;;;;;15.24;100.00;100112.98;224171;1263;140490;-85
2023/10/07 04:00:35;;;;;;;273.50;233.50;;;;;;;15.17;100.00;100113.61;223579;1264;140798;-85
2023/10/07 04:12:40;;;;;;;615.70;542.20;;;;;;;15.12;100.00;100110.84;223645;1263;140988;-87
2023/10/07 04:18:41;;;;;;;496.20;444.40;;;;;;;15.11;100.00;100101.11;224180;1263;139790;-87
2023/10/07 04:24:44;;;;;;;493.20;442.90;;;;;;;15.10;100.00;100099.52;223724;1264;140501;-88
2023/10/07 04:30:47;;;;;;;585.10;464.50;;;;;;;15.10;100.00;100099.68;223640;1263;141185;-85
2023/10/07 04:55:05;;;;;;;554.90;494.60;;;;;;;15.10;100.00;100065.70;223745;1263;140383;-85
2023/10/07 05:01:22;;;;;;;396.60;358.40;;;;;;;15.11;100.00;100071.65;223708;1263;140842;-86
2023/10/07 05:07:06;;;;;;;;;;;;;;;;;;;;;
2023/10/07 05:13:08;;;;;;;608.00;500.10;;;;;;;15.13;100.00;100069.79;223623;1264;140804;-87
2023/10/07 05:19:09;;;;;;;618.90;535.40;;;;;;;15.17;100.00;100063.08;224268;1264;140191;-87
2023/10/07 05:25:10;;;;;;;530.20;466.40;;;;;;;15.20;100.00;100059.48;223779;1263;224027;-86
2023/10/07 05:31:14;;;;;;;563.80;484.30;;;;;;;15.25;100.00;100056.71;223616;1263;141222;-86
2023/10/07 05:37:12;;;;;;;1122.10;641.70;;;;;;;15.31;100.00;100055.84;224291;1263;139302;-86
2023/10/07 05:43:11;;;;;;;981.70;646.20;;;;;;;15.38;100.00;100047.61;223647;1263;141036;-86
2023/10/07 05:49:02;;;;;;;665.80;543.90;;;;;;;15.46;100.00;100055.98;224290;1263;139883;-84
2023/10/07 05:55:02;;;;;;;;;;;;;;;;;;;;;
2023/10/07 06:01:04;;;;;;;679.30;551.80;;;;;;;15.62;100.00;100070.39;223732;1264;140764;-85
2023/10/07 06:07:06;;;;;;;752.30;587.30;;;;;;;15.70;100.00;100070.20;224245;1263;139932;-83
2023/10/07 06:13:29;;;;;;;607.40;512.00;;;;;;;15.79;100.00;100067.44;223762;1263;140909;-85
2023/10/07 06:19:07;;;;;;;570.90;511.30;;;;;;;15.85;100.00;100071.05;224215;1263;139467;-86
2023/10/07 06:25:07;;;;;;;691.30;618.10;;;;;;;15.92;100.00;100074.27;223892;1263;140811;-87
2023/10/07 06:31:33;;;;;;;1161.30;674.30;;;;;;;16.00;100.00;100084.61;223652;1263;140803;-87
2023/10/07 06:37:09;;;;;;;1076.90;708.00;;;;;;;16.07;100.00;100082.67;224166;1263;139485;-85
2023/10/07 06:43:14;;;;;;;1016.60;658.80;;;;;;;16.17;100.00;100089.48;223728;1263;140858;-87
2023/10/07 06:49:39;;;;;;;1666.40;740.40;;;;;;;16.24;100.00;100090.94;224228;1263;139904;-85
2023/10/07 06:54:42;;;;;;;1136.70;747.10;;;;;;;16.30;100.00;100093.45;223675;1263;140370;-84
2023/10/07 07:01:10;;;;;;;1481.70;690.60;;;;;;;16.40;100.00;100097.91;223713;1263;141025;-83
2023/10/07 07:06:44;;;;;;;1164.90;728.30;;;;;;;16.47;100.00;100109.78;224226;1263;139449;-84
2023/10/07 07:12:45;;;;;;;1311.70;722.70;;;;;;;16.52;100.00;100115.41;223650;1263;140857;-85
2023/10/07 07:24:05;;;;;;;1418.00;828.20;;;;;;;16.60;100.00;100129.95;223695;1263;140902;-85
2023/10/07 07:30:19;;;;;;;1645.50;853.50;;;;;;;16.63;100.00;100133.77;223554;1263;140949;-85
2023/10/07 07:36:09;;;;;;;1619.00;843.20;;;;;;;16.65;100.00;100143.81;224257;1263;139838;-82
2023/10/07 07:48:18;;;;;;;1587.90;853.10;;;;;;;16.71;100.00;100150.39;224073;1263;140077;-85
2023/10/07 08:00:20;;;;;;;1696.00;849.60;;;;;;;16.78;100.00;100164.71;223617;1263;141592;-85
2023/10/07 08:06:14;;;;;;;;;;;;;;;;;;;;;
2023/10/07 08:12:19;;;;;;;1747.90;879.10;;;;;;;16.76;100.00;100190.23;223562;1263;140970;-86
2023/10/07 08:18:22;;;;;;;1641.90;826.30;;;;;;;16.72;100.00;100208.31;224211;1263;139489;-87
2023/10/07 08:24:19;;;;;;;1924.70;941.80;;;;;;;16.68;100.00;100211.58;223753;1263;140744;-85
2023/10/07 08:30:46;;;;;;;1999.90;972.60;;;;;;;16.62;100.00;100214.60;223715;1263;141104;-87
2023/10/07 08:36:27;;;;;;;1999.90;998.10;;;;;;;16.51;100.00;100225.44;220069;1263;139529;-87
2023/10/07 08:42:26;;;;;;;1999.90;996.20;;;;;;;16.42;100.00;100241.13;223636;1265;140993;-88
2023/10/07 09:00:38;;;;;;;1999.90;996.30;;;;;;;16.04;100.00;100256.58;223641;1266;140941;-89
2023/10/07 09:06:45;;;;;;;1834.40;940.60;;;;;;;15.91;100.00;100259.62;224215;1264;139498;-87
2023/10/07 09:12:29;;;;;;;1969.50;936.60;;;;;;;15.71;100.00;100266.05;223647;1265;140824;-86
2023/10/07 09:18:28;;;;;;;1948.30;923.60;;;;;;;15.63;100.00;100272.89;224211;1265;139562;-86
2023/10/07 09:24:25;;;;;;;1964.10;954.60;;;;;;;15.54;100.00;100272.12;223555;1265;140744;-88
2023/10/07 09:43:18;;;;;;;1999.90;976.90;;;;;;;15.44;100.00;100260.75;223499;1263;140714;-88
2023/10/07 09:48:51;;;;;;;1999.90;969.80;;;;;;;15.43;100.00;100261.48;224063;1263;139934;-89
2023/10/07 09:55:19;;;;;;;1999.90;989.40;;;;;;;15.42;100.00;100255.23;223733;1263;140782;-88
2023/10/07 10:01:28;;;;;;;1999.90;988.60;;;;;;;15.45;100.00;100265.88;223693;1263;141185;-88
2023/10/07 10:07:11;;;;;;;1999.90;999.50;;;;;;;15.46;100.00;100270.06;224082;1263;139991;-88
2023/10/07 10:31:47;;;;;;;1999.90;911.80;;;;;;;15.28;100.00;100272.86;223506;1263;141142;-87
2023/10/07 10:37:48;;;;;;;1999.90;984.60;;;;;;;15.20;100.00;100273.80;224216;1263;139926;-87
2023/10/07 10:43:49;;;;;;;1999.90;987.10;;;;;;;15.18;100.00;100274.95;223632;1265;140579;-85
2023/10/07 10:49:44;;;;;;;;;;;;;;;;;;;;;
2023/10/07 10:55:42;;;;;;;1999.90;986.00;;;;;;;15.14;100.00;100282.67;224155;1263;243755;-86
2023/10/07 11:01:28;;;;;;;1914.50;942.00;;;;;;;15.07;100.00;100289.86;223697;1263;141234;-87
2023/10/07 11:13:31;;;;;;;1963.40;936.50;;;;;;;14.97;100.00;100289.80;223571;1264;140721;-89
2023/10/07 11:19:37;;;;;;;1961.70;980.80;;;;;;;14.92;100.00;100293.40;224250;1265;139608;-89
2023/10/07 11:25:54;;;;;;;1935.20;958.60;;;;;;;14.93;100.00;100290.08;224207;1264;139973;-87
2023/10/07 11:31:37;;;;;;;1910.80;936.80;;;;;;;14.91;100.00;100284.63;223644;1263;140795;-88
2023/10/07 11:37:49;;;;;;;1968.90;949.00;;;;;;;14.90;100.00;100283.84;224244;1266;139455;-87
2023/10/07 11:43:35;;;;;;;1979.40;937.40;;;;;;;14.90;100.00;100285.11;223396;1263;140677;-86
2023/10/07 11:49:36;;;;;;;1999.90;979.70;;;;;;;14.91;100.00;100281.93;224117;1263;140516;-87
2023/10/07 11:55:37;;;;;;;1996.60;967.60;;;;;;;14.96;100.00;100277.06;224099;1263;140013;-88
2023/10/07 12:01:32;;;;;;;1998.60;966.30;;;;;;;14.96;100.00;100275.94;223691;1265;141115;-86
2023/10/07 12:07:33;;;;;;;1999.90;983.80;;;;;;;14.98;100.00;100265.79;224239;1263;139987;-86
2023/10/07 12:13:52;;;;;;;1999.90;993.80;;;;;;;15.03;100.00;100259.89;223674;1266;141591;-85
2023/10/07 12:19:56;;;;;;;1999.90;990.90;;;;;;;15.05;100.00;100266.75;224221;1267;139997;-87
2023/10/07 12:25:14;;;;;;;;;;;;;;;;;;;;;
2023/10/07 12:31:16;;;;;;;1999.90;999.90;;;;;;;15.12;100.00;100262.48;223549;1263;141213;-84
2023/10/07 12:37:17;;;;;;;1999.90;999.80;;;;;;;15.17;100.00;100264.49;224247;1263;140026;-85
2023/10/07 12:43:10;;;;;;;;;;;;;;;;;;;;;
2023/10/07 12:49:40;;;;;;;1999.90;999.90;;;;;;;15.16;100.00;100268.47;224098;1263;140075;-83
2023/10/07 12:55:13;;;;;;;;;;;;;;;;;;;;;
2023/10/07 13:01:14;;;;;;;1999.90;999.90;;;;;;;15.18;100.00;100259.49;223670;1263;141252;-84
2023/10/07 13:07:17;;;;;;;1999.90;999.90;;;;;;;15.20;100.00;100250.61;224192;1263;139895;-83
2023/10/07 13:12:56;;;;;;;;;;;;;;;;;;;;;
2023/10/07 13:18:47;;;;;;;;;;;;;;;;;;;;;
2023/10/07 13:24:36;;;;;;;;;;;;;;;;;;;;;
2023/10/07 13:30:38;;;;;;;1999.90;999.90;;;;;;;15.23;100.00;100228.15;223553;1263;141757;-83
2023/10/07 13:36:41;;;;;;;1999.90;999.90;;;;;;;15.24;100.00;100220.69;224165;1263;140037;-84
2023/10/07 13:48:30;;;;;;;1999.90;999.90;;;;;;;15.20;100.00;100215.52;224206;1263;139846;-84
2023/10/07 13:55:18;;;;;;;1999.90;999.90;;;;;;;15.14;100.00;100211.30;223546;1263;140835;-83
2023/10/07 14:06:30;;;;;;;1999.90;999.90;;;;;;;15.06;100.00;100209.58;224097;1263;139968;-84
2023/10/07 14:12:31;;;;;;;1999.90;999.90;;;;;;;15.05;100.00;100203.48;223458;1263;140778;-85
2023/10/07 14:18:32;;;;;;;1999.90;999.90;;;;;;;15.06;100.00;100202.14;224118;1263;139591;-85
2023/10/07 14:24:32;;;;;;;;;;;;;;;;;;;;;
2023/10/07 14:30:34;;;;;;;1999.90;999.90;;;;;;;15.03;100.00;100210.08;223620;1263;141219;-86
2023/10/07 14:37:04;;;;;;;1999.90;999.90;;;;;;;15.04;100.00;100211.09;224172;1264;139561;-87
2023/10/07 14:42:40;;;;;;;1999.90;999.90;;;;;;;14.97;100.00;100201.50;223502;1268;140963;-87
2023/10/07 14:48:42;;;;;;;1999.90;999.90;;;;;;;14.95;100.00;100198.84;224026;1263;140050;-88
2023/10/07 14:54:41;;;;;;;1999.90;999.90;;;;;;;14.94;100.00;100198.22;223559;1263;140816;-88
2023/10/07 15:00:42;;;;;;;1999.90;999.90;;;;;;;14.91;100.00;100198.63;223599;1263;141335;-88
2023/10/07 15:06:49;;;;;;;1999.90;999.90;;;;;;;14.89;100.00;100198.19;224190;1263;139651;-87
2023/10/07 15:12:56;;;;;;;1999.90;996.90;;;;;;;14.86;100.00;100199.48;223589;1263;141244;-90
2023/10/07 15:19:00;;;;;;;1999.90;999.90;;;;;;;14.72;100.00;100211.98;224210;1263;139603;-92
2023/10/07 15:24:50;;;;;;;;;;;;;;;;;;;;;
2023/10/07 15:31:01;;;;;;;1752.50;879.90;;;;;;;14.20;100.00;100232.55;223653;1263;140943;-88
2023/10/07 15:37:03;;;;;;;1570.30;832.00;;;;;;;14.01;100.00;100235.81;224142;1266;140264;-87
2023/10/07 15:43:03;;;;;;;1441.90;816.10;;;;;;;13.90;100.00;100245.27;223523;1263;141082;-87
2023/10/07 15:49:29;;;;;;;1302.80;777.40;;;;;;;13.80;100.00;100243.04;224118;1263;140027;-86
2023/10/07 15:55:06;;;;;;;1237.30;753.30;;;;;;;13.71;100.00;100248.38;223661;1263;141624;-87
2023/10/07 16:01:09;;;;;;;886.30;639.10;;;;;;;13.60;100.00;100254.90;223665;1263;141725;-88
2023/10/07 16:06:48;;;;;;;701.20;552.20;;;;;;;13.39;100.00;100264.22;224088;1264;139429;-87
2023/10/07 16:12:52;;;;;;;688.70;575.80;;;;;;;13.29;100.00;100276.02;223558;1263;141101;-88
2023/10/07 16:18:53;;;;;;;567.60;460.80;;;;;;;13.21;100.00;100291.82;224131;1267;139296;-87
2023/10/07 16:24:46;;;;;;;;;;;;;;;;;;;;;
2023/10/07 16:30:48;;;;;;;565.00;471.50;;;;;;;13.04;100.00;100296.73;223582;1267;141117;-89
2023/10/07 16:36:50;;;;;;;520.00;448.10;;;;;;;12.99;100.00;100306.14;224045;1263;139358;-89
2023/10/07 16:48:51;;;;;;;462.50;411.00;;;;;;;12.87;100.00;100333.58;224173;1263;139249;-90
2023/10/07 16:54:51;;;;;;;416.00;377.50;;;;;;;12.76;100.00;100338.70;223671;1263;140967;-90
2023/10/07 17:00:44;;;;;;;;;;;;;;;;;;;;;
2023/10/07 17:06:46;;;;;;;177.40;164.10;;;;;;;12.50;100.00;100351.52;224298;1263;139358;-87
2023/10/07 17:12:47;;;;;;;55.10;50.60;;;;;;;12.29;100.00;100369.20;223634;1264;140828;-87
2023/10/07 17:18:50;;;;;;;32.10;29.60;;;;;;;12.06;100.00;100362.34;224060;1267;139265;-87
2023/10/07 17:24:51;;;;;;;22.00;18.00;;;;;;;11.87;100.00;100347.69;223538;1268;140323;-85
2023/10/07 17:30:51;;;;;;;17.10;14.50;;;;;;;11.75;100.00;100338.02;223571;1263;140325;-85
2023/10/07 17:36:52;;;;;;;22.10;18.20;;;;;;;11.69;100.00;100345.39;224095;1264;138981;-85
2023/10/07 17:42:46;;;;;;;;;;;;;;;;;;;;;
2023/10/07 17:48:49;;;;;;;24.00;19.70;;;;;;;11.66;100.00;100350.89;224083;1264;138797;-84
2023/10/07 18:06:53;;;;;;;23.00;18.40;;;;;;;11.69;100.00;100349.48;224189;1264;139110;-84
2023/10/07 18:12:53;;;;;;;23.10;20.00;;;;;;;11.66;100.00;100356.08;223653;1264;140398;-84
2023/10/07 18:18:53;;;;;;;22.60;18.50;;;;;;;11.61;100.00;100361.82;224211;1264;139169;-85
2023/10/07 18:24:56;;;;;;;22.00;18.50;;;;;;;11.59;100.00;100360.22;223570;1263;139956;-85
2023/10/07 18:30:48;;;;;;;;;;;;;;;;;;;;;
2023/10/07 18:36:56;;;;;;;;;;;;;;;;;;;;;
2023/10/07 18:48:59;;;;;;;30.30;26.90;;;;;;;11.55;100.00;100358.44;224236;1263;138971;-84
2023/10/07 18:55:00;;;;;;;18.70;11.40;;;;;;;11.54;100.00;100365.99;223588;1263;140674;-85
2023/10/07 19:00:55;;;;;;;32.10;27.80;;;;;;;11.56;100.00;100372.86;223675;1263;140746;-84
2023/10/07 19:06:59;;;;;;;29.50;25.60;;;;;;;11.57;100.00;100375.14;224106;1263;139432;-84
2023/10/07 19:12:59;;;;;;;22.70;18.90;;;;;;;11.52;100.00;100381.89;223684;1263;140175;-83
2023/10/07 19:18:41;;;;;;;22.30;19.50;;;;;;;11.49;100.00;100376.74;224232;1263;138985;-84
2023/10/07 19:24:36;;;;;;;;;;;;;;;;;;;;;
2023/10/07 19:30:39;;;;;;;23.00;20.70;;;;;;;11.45;100.00;100354.19;223635;1263;141511;-84
2023/10/07 19:37:09;;;;;;;27.60;23.90;;;;;;;11.38;100.00;100339.13;224201;1263;139579;-85
2023/10/07 19:42:49;;;;;;;20.60;18.40;;;;;;;11.34;100.00;100330.67;223382;1263;140528;-84
2023/10/07 19:48:51;;;;;;;16.10;14.10;;;;;;;11.36;100.00;100327.23;224238;1263;138978;-85
2023/10/07 19:54:52;;;;;;;25.40;23.00;;;;;;;11.34;100.00;100340.35;223687;1263;140259;-83
2023/10/07 20:00:55;;;;;;;28.00;25.20;;;;;;;11.33;100.00;100357.42;223706;1263;140658;-83
2023/10/07 20:12:58;;;;;;;34.60;31.70;;;;;;;11.31;100.00;100376.38;223643;1263;140526;-83
2023/10/07 20:18:58;;;;;;;34.50;30.70;;;;;;;11.29;100.00;100378.58;224159;1263;139921;-84
2023/10/07 20:25:00;;;;;;;31.90;29.40;;;;;;;11.28;100.00;100372.36;223723;1263;140524;-84
2023/10/07 20:37:02;;;;;;;54.40;50.30;;;;;;;11.33;100.00;100384.27;220167;1263;139392;-84
2023/10/07 20:43:03;;;;;;;43.70;40.10;;;;;;;11.33;100.00;100387.35;223689;1264;140138;-84
2023/10/07 20:49:06;;;;;;;40.60;37.40;;;;;;;11.34;100.00;100389.95;224211;1263;139065;-84
2023/10/07 20:55:05;;;;;;;28.10;25.50;;;;;;;11.35;100.00;100398.77;223689;1263;140568;-84
2023/10/07 21:01:31;;;;;;;34.50;31.50;;;;;;;11.30;100.00;100391.25;223562;1263;140263;-84
2023/10/07 21:07:17;;;;;;;14.90;11.30;;;;;;;11.23;100.00;100385.77;224044;1263;139061;-84
2023/10/07 21:13:18;;;;;;;12.50;9.00;;;;;;;11.17;100.00;100384.16;223609;1264;140220;-84
2023/10/07 21:19:18;;;;;;;13.80;9.60;;;;;;;11.15;100.00;100371.16;224244;1263;138810;-85
2023/10/07 21:25:19;;;;;;;11.10;7.30;;;;;;;11.13;100.00;100370.66;224013;1263;140599;-83
2023/10/07 21:31:17;;;;;;;;;;;;;;;;;;;;;
2023/10/07 21:37:18;;;;;;;15.50;10.50;;;;;;;11.10;100.00;100398.58;224274;1263;139445;-84
2023/10/07 21:43:19;;;;;;;19.70;17.60;;;;;;;11.12;100.00;100401.34;223860;1263;140444;-86
2023/10/07 21:49:20;;;;;;;14.50;11.90;;;;;;;11.10;100.00;100398.42;224391;1263;139144;-85
2023/10/07 21:55:22;;;;;;;18.20;15.80;;;;;;;11.11;100.00;100395.81;224223;1263;223329;-84
2023/10/07 22:01:23;;;;;;;14.10;9.60;;;;;;;11.10;100.00;100388.58;223732;1263;140719;-84
2023/10/07 22:07:16;;;;;;;14.40;11.80;;;;;;;11.08;100.00;100384.08;224345;1263;138836;-84
2023/10/07 22:13:17;;;;;;;13.90;11.20;;;;;;;11.07;100.00;100376.44;223851;1263;140442;-84
2023/10/07 22:19:02;;;;;;;;;;;;;;;;;;;;;
2023/10/07 22:25:05;;;;;;;14.90;8.20;;;;;;;11.03;100.00;100370.74;223778;1263;139995;-85
2023/10/07 22:31:27;;;;;;;12.50;7.60;;;;;;;11.03;100.00;100358.63;223785;1263;140565;-85
2023/10/07 22:37:16;;;;;;;16.10;12.30;;;;;;;11.01;100.00;100367.88;224277;1263;138781;-84
2023/10/07 22:43:11;;;;;;;16.60;10.80;;;;;;;11.00;100.00;100380.06;223749;1262;140710;-84
2023/10/07 22:49:11;;;;;;;18.40;15.60;;;;;;;11.00;100.00;100390.46;224298;1263;139012;-84
2023/10/07 22:55:14;;;;;;;28.60;24.40;;;;;;;11.05;100.00;100391.77;223892;1263;249473;-85
2023/10/07 23:19:23;;;;;;;21.60;19.50;;;;;;;11.16;100.00;100435.05;224404;1265;139623;-84
2023/10/07 23:25:30;;;;;;;;;;;;;;;;;;;;;
2023/10/07 23:43:35;;;;;;;34.30;30.50;;;;;;;11.23;100.00;100422.45;223833;1263;140433;-87
2023/10/07 23:55:43;;;;;;;;;;;;;;;;;;;;;
